Time;durP1;ratioP1;P1;durP2;ratioP2;P2;SDS_P1;SDS_P2;PMS_P1;PMS_P2;Temp;Humidity;BMP_temperature;BMP_pressure;BME280_temperature;BME280_humidity;BME280_pressure;Samples;Min_cycle;Max_cycle;Signal;HPM_P1;HPM_P2
2022/07/11 00:00:58;;;;;;;1.40;1.30;;;;;;;;;;5061386;27;88248;-48
2022/07/11 00:03:28;;;;;;;1.43;1.27;;;;;;;;;;5062358;27;87802;-49
2022/07/11 00:05:56;;;;;;;2.47;1.20;;;;;;;;;;5062761;27;86751;-49
2022/07/11 00:08:24;;;;;;;1.23;0.83;;;;;;;;;;5062802;27;87247;-49
2022/07/11 00:10:53;;;;;;;2.60;1.27;;;;;;;;;;5062243;27;87207;-49
2022/07/11 00:13:21;;;;;;;2.63;1.43;;;;;;;;;;5062856;27;88886;-49
2022/07/11 00:15:50;;;;;;;1.83;1.10;;;;;;;;;;5062090;27;87034;-49
2022/07/11 00:18:18;;;;;;;1.73;1.30;;;;;;;;;;5062058;27;87063;-49
2022/07/11 00:20:48;;;;;;;1.53;0.83;;;;;;;;;;5061152;27;88949;-49
2022/07/11 00:23:16;;;;;;;3.43;1.33;;;;;;;;;;5062137;27;90085;-49
2022/07/11 00:25:45;;;;;;;1.47;1.03;;;;;;;;;;5062002;27;87008;-49
2022/07/11 00:28:13;;;;;;;1.70;1.00;;;;;;;;;;5062663;27;86980;-49
2022/07/11 00:30:41;;;;;;;1.20;1.00;;;;;;;;;;5061527;27;88242;-49
2022/07/11 00:33:10;;;;;;;1.17;0.97;;;;;;;;;;5061043;27;87655;-49
2022/07/11 00:35:38;;;;;;;1.53;0.80;;;;;;;;;;5061671;27;87081;-49
2022/07/11 00:38:07;;;;;;;1.70;1.07;;;;;;;;;;5062151;27;86273;-49
2022/07/11 00:40:36;;;;;;;0.80;0.80;;;;;;;;;;5061580;27;88197;-49
2022/07/11 00:43:04;;;;;;;3.37;1.47;;;;;;;;;;5061947;27;87860;-49
2022/07/11 00:45:33;;;;;;;1.30;1.20;;;;;;;;;;5061358;27;88005;-49
2022/07/11 00:48:01;;;;;;;1.87;0.90;;;;;;;;;;5061970;27;87090;-49
2022/07/11 00:50:29;;;;;;;1.30;0.90;;;;;;;;;;5061533;27;89076;-49
2022/07/11 00:52:58;;;;;;;1.10;1.00;;;;;;;;;;5061720;27;88853;-49
2022/07/11 00:55:27;;;;;;;0.97;0.80;;;;;;;;;;5060778;27;86969;-53
2022/07/11 00:57:56;;;;;;;1.17;0.70;;;;;;;;;;5061906;27;87063;-49
2022/07/11 01:00:24;;;;;;;0.70;0.70;;;;;;;;;;5060667;27;89244;-49
2022/07/11 01:02:53;;;;;;;1.07;1.00;;;;;;;;;;5062474;27;87781;-49
2022/07/11 01:05:21;;;;;;;1.83;1.30;;;;;;;;;;5062031;27;87006;-49
2022/07/11 01:07:49;;;;;;;1.33;0.93;;;;;;;;;;5062048;27;87104;-49
2022/07/11 01:10:17;;;;;;;1.00;0.80;;;;;;;;;;5060379;27;90126;-49
2022/07/11 01:12:47;;;;;;;1.53;0.90;;;;;;;;;;5061182;27;88788;-49
2022/07/11 01:15:15;;;;;;;1.33;0.87;;;;;;;;;;5061872;27;86934;-49
2022/07/11 01:17:44;;;;;;;0.70;0.60;;;;;;;;;;5061873;27;86907;-50
2022/07/11 01:20:12;;;;;;;1.17;0.70;;;;;;;;;;5061019;27;88079;-49
2022/07/11 01:22:42;;;;;;;1.13;0.90;;;;;;;;;;5061623;27;88123;-49
2022/07/11 01:25:29;;;;;;;1.10;1.00;;;;;;;;;;5061040;27;87073;-49
2022/07/11 01:27:58;;;;;;;1.10;1.00;;;;;;;;;;5061458;27;86130;-49
2022/07/11 01:30:26;;;;;;;1.33;1.13;;;;;;;;;;5060373;27;88443;-49
2022/07/11 01:32:55;;;;;;;3.60;1.70;;;;;;;;;;5060753;27;87200;-49
2022/07/11 01:35:23;;;;;;;3.23;1.53;;;;;;;;;;5040807;28;88000;-49
2022/07/11 01:37:51;;;;;;;3.63;1.77;;;;;;;;;;5061054;27;87015;-49
2022/07/11 01:40:27;;;;;;;4.10;2.50;;;;;;;;;;5060324;27;88052;-49
2022/07/11 01:42:55;;;;;;;3.37;2.00;;;;;;;;;;5061261;27;87926;-49
2022/07/11 01:45:23;;;;;;;4.43;1.80;;;;;;;;;;5061451;27;87036;-49
2022/07/11 01:47:52;;;;;;;1.63;1.53;;;;;;;;;;5060620;27;86957;-49
2022/07/11 01:50:20;;;;;;;4.60;2.30;;;;;;;;;;5060871;27;88208;-50
2022/07/11 01:52:48;;;;;;;2.90;1.87;;;;;;;;;;5061651;27;87812;-49
2022/07/11 01:55:16;;;;;;;2.93;1.90;;;;;;;;;;5062586;27;87080;-49
2022/07/11 01:57:46;;;;;;;3.10;1.70;;;;;;;;;;5043891;28;87061;-49
2022/07/11 02:00:15;;;;;;;2.80;1.90;;;;;;;;;;5044316;27;89198;-49
2022/07/11 02:02:43;;;;;;;3.17;2.30;;;;;;;;;;5064018;27;88762;-49
2022/07/11 02:05:11;;;;;;;2.70;1.67;;;;;;;;;;5064700;27;86883;-49
2022/07/11 02:10:29;;;;;;;2.57;2.13;;;;;;;;;;5063580;27;88161;-49
2022/07/11 02:12:59;;;;;;;4.53;1.40;;;;;;;;;;5064960;27;88502;-49
2022/07/11 02:15:27;;;;;;;3.17;1.90;;;;;;;;;;5064263;27;87027;-49
2022/07/11 02:17:55;;;;;;;4.30;2.17;;;;;;;;;;5064478;27;86196;-49
2022/07/11 02:20:24;;;;;;;2.57;1.97;;;;;;;;;;5063941;27;88179;-49
2022/07/11 02:22:52;;;;;;;4.37;2.13;;;;;;;;;;5063149;27;87940;-49
2022/07/11 02:25:22;;;;;;;4.83;2.43;;;;;;;;;;5063300;27;87986;-49
2022/07/11 02:27:51;;;;;;;5.80;2.37;;;;;;;;;;5064334;27;87018;-49
2022/07/11 02:30:20;;;;;;;3.70;1.70;;;;;;;;;;5063311;27;88259;-49
2022/07/11 02:32:49;;;;;;;4.80;2.17;;;;;;;;;;5064428;27;87895;-49
2022/07/11 02:35:17;;;;;;;3.77;2.33;;;;;;;;;;5063877;27;86997;-49
2022/07/11 02:37:46;;;;;;;2.77;2.17;;;;;;;;;;5063197;27;87040;-49
2022/07/11 02:40:14;;;;;;;3.30;1.90;;;;;;;;;;5063049;27;89239;-49
2022/07/11 02:42:42;;;;;;;5.87;3.10;;;;;;;;;;5063440;27;88078;-49
2022/07/11 02:45:11;;;;;;;7.03;3.03;;;;;;;;;;5063328;27;87453;-50
2022/07/11 02:47:40;;;;;;;5.67;2.97;;;;;;;;;;5063960;27;87118;-50
2022/07/11 02:50:11;;;;;;;2.97;2.27;;;;;;;;;;5063088;27;89094;-50
2022/07/11 02:52:39;;;;;;;5.10;2.10;;;;;;;;;;5043520;28;88499;-49
2022/07/11 02:55:08;;;;;;;8.70;3.37;;;;;;;;;;5058520;27;86995;-49
2022/07/11 02:57:38;;;;;;;3.03;2.20;;;;;;;;;;5063113;27;87116;-49
2022/07/11 03:00:07;;;;;;;3.90;2.40;;;;;;;;;;5063341;27;88059;-49
2022/07/11 03:02:35;;;;;;;3.40;2.33;;;;;;;;;;5063185;27;87934;-49
2022/07/11 03:05:06;;;;;;;3.77;2.47;;;;;;;;;;5064239;27;86963;-49
2022/07/11 03:07:34;;;;;;;5.90;3.13;;;;;;;;;;5062244;27;86574;-49
2022/07/11 03:10:02;;;;;;;3.13;2.50;;;;;;;;;;5063435;27;88357;-49
2022/07/11 03:12:30;;;;;;;4.90;2.50;;;;;;;;;;5063302;27;88852;-49
2022/07/11 03:14:59;;;;;;;4.97;3.23;;;;;;;;;;5062695;27;87963;-49
2022/07/11 03:17:27;;;;;;;8.53;3.20;;;;;;;;;;5063152;27;89007;-49
2022/07/11 03:19:55;;;;;;;5.93;2.87;;;;;;;;;;5062940;27;88244;-49
2022/07/11 03:22:25;;;;;;;4.60;3.20;;;;;;;;;;5062551;27;88899;-49
2022/07/11 03:24:53;;;;;;;5.20;3.33;;;;;;;;;;5063812;27;86890;-49
2022/07/11 03:27:22;;;;;;;6.40;3.13;;;;;;;;;;5062813;27;86938;-49
2022/07/11 03:29:50;;;;;;;5.40;3.33;;;;;;;;;;5062305;27;88059;-49
2022/07/11 03:32:20;;;;;;;4.70;3.07;;;;;;;;;;5062362;27;87808;-48
2022/07/11 03:37:45;;;;;;;4.17;2.93;;;;;;;;;;5028263;27;87015;-48
2022/07/11 03:40:13;;;;;;;3.40;2.57;;;;;;;;;;5062683;27;89283;-49
2022/07/11 03:42:42;;;;;;;2.40;1.97;;;;;;;;;;5062236;27;89859;-48
2022/07/11 03:45:10;;;;;;;3.20;2.33;;;;;;;;;;5062532;27;87198;-49
2022/07/11 03:47:39;;;;;;;5.00;2.57;;;;;;;;;;5062457;27;87196;-49
2022/07/11 03:50:07;;;;;;;2.87;2.33;;;;;;;;;;5062352;27;89047;-49
2022/07/11 03:52:36;;;;;;;3.13;2.10;;;;;;;;;;5061895;27;87913;-49
2022/07/11 03:55:06;;;;;;;4.53;2.40;;;;;;;;;;5062360;27;87242;-49
2022/07/11 03:57:36;;;;;;;6.27;2.30;;;;;;;;;;5062870;27;86205;-49
2022/07/11 04:00:05;;;;;;;2.90;2.20;;;;;;;;;;5062275;27;88295;-49
2022/07/11 04:02:34;;;;;;;4.00;2.20;;;;;;;;;;5062404;27;87784;-49
2022/07/11 04:05:02;;;;;;;4.90;2.23;;;;;;;;;;5062271;27;87850;-49
2022/07/11 04:07:30;;;;;;;4.43;2.30;;;;;;;;;;5063421;27;87071;-49
2022/07/11 04:09:59;;;;;;;4.97;2.47;;;;;;;;;;5062307;27;88227;-49
2022/07/11 04:12:29;;;;;;;4.53;2.37;;;;;;;;;;5061620;27;87726;-49
2022/07/11 04:14:57;;;;;;;4.60;2.60;;;;;;;;;;5062348;27;87046;-48
2022/07/11 04:17:26;;;;;;;4.87;2.43;;;;;;;;;;5062755;27;87083;-48
2022/07/11 04:19:54;;;;;;;6.00;3.17;;;;;;;;;;5061375;27;90121;-48
2022/07/11 04:22:24;;;;;;;3.73;2.70;;;;;;;;;;5062645;27;88944;-48
2022/07/11 04:24:52;;;;;;;3.57;2.17;;;;;;;;;;5061239;27;87090;-48
2022/07/11 04:27:20;;;;;;;4.10;2.70;;;;;;;;;;5061756;27;86959;-48
2022/07/11 04:29:52;;;;;;;3.33;2.07;;;;;;;;;;5061046;27;89545;-49
2022/07/11 04:32:20;;;;;;;3.10;2.17;;;;;;;;;;5062148;27;88496;-53
2022/07/11 04:34:49;;;;;;;3.47;1.97;;;;;;;;;;5062310;27;86925;-49
2022/07/11 04:37:17;;;;;;;3.50;2.10;;;;;;;;;;5061899;27;87051;-48
2022/07/11 04:39:47;;;;;;;4.57;2.47;;;;;;;;;;5062290;27;88200;-49
2022/07/11 04:42:16;;;;;;;2.03;1.80;;;;;;;;;;5061376;27;88875;-49
2022/07/11 04:44:44;;;;;;;3.30;2.13;;;;;;;;;;5061888;27;87434;-49
2022/07/11 04:47:14;;;;;;;1.97;1.60;;;;;;;;;;5062393;27;86319;-49
2022/07/11 04:49:46;;;;;;;2.03;1.40;;;;;;;;;;5059333;27;88454;-49
2022/07/11 04:52:14;;;;;;;2.47;1.73;;;;;;;;;;5061279;27;88008;-49
2022/07/11 04:54:43;;;;;;;4.03;2.20;;;;;;;;;;5061212;27;87792;-49
2022/07/11 04:57:11;;;;;;;3.47;1.97;;;;;;;;;;5060461;27;87151;-49
2022/07/11 04:59:39;;;;;;;2.73;1.67;;;;;;;;;;5067784;27;88091;-49
2022/07/11 05:02:08;;;;;;;2.10;1.90;;;;;;;;;;5082491;27;89107;-49
2022/07/11 05:04:38;;;;;;;2.70;2.00;;;;;;;;;;5068100;27;87002;-49
2022/07/11 05:07:07;;;;;;;1.77;1.33;;;;;;;;;;5061661;27;87077;-49
2022/07/11 05:09:35;;;;;;;3.30;1.93;;;;;;;;;;5060596;27;89427;-49
2022/07/11 05:12:03;;;;;;;2.97;2.07;;;;;;;;;;5061635;27;89006;-49
2022/07/11 05:14:32;;;;;;;2.73;1.67;;;;;;;;;;5062083;27;87379;-49
2022/07/11 05:17:00;;;;;;;1.73;1.40;;;;;;;;;;5060188;27;87081;-49
2022/07/11 05:19:28;;;;;;;3.00;1.80;;;;;;;;;;5066699;27;89896;-49
2022/07/11 05:21:58;;;;;;;1.30;1.10;;;;;;;;;;5061294;27;88944;-53
2022/07/11 05:24:26;;;;;;;1.17;1.03;;;;;;;;;;5061743;27;88300;-51
2022/07/11 05:26:55;;;;;;;3.33;1.00;;;;;;;;;;5060888;27;87168;-49
2022/07/11 05:29:23;;;;;;;4.47;0.87;;;;;;;;;;5061058;27;88359;-46
2022/07/11 05:31:52;;;;;;;1.00;0.70;;;;;;;;;;5063925;27;89015;-47
2022/07/11 05:34:21;;;;;;;0.70;0.50;;;;;;;;;;5064925;27;86837;-47
2022/07/11 05:36:49;;;;;;;0.77;0.60;;;;;;;;;;5064239;27;86920;-47
2022/07/11 05:39:19;;;;;;;0.93;0.60;;;;;;;;;;5063995;27;88153;-47
2022/07/11 05:41:50;;;;;;;1.27;0.70;;;;;;;;;;5064978;27;87963;-49
2022/07/11 05:44:19;;;;;;;0.60;0.60;;;;;;;;;;5064790;27;87692;-48
2022/07/11 05:46:47;;;;;;;1.43;0.60;;;;;;;;;;5063903;27;87063;-44
2022/07/11 05:49:15;;;;;;;1.90;0.50;;;;;;;;;;5063579;27;88044;-52
2022/07/11 05:51:44;;;;;;;0.67;0.40;;;;;;;;;;5064525;27;88903;-52
2022/07/11 05:54:12;;;;;;;0.70;0.40;;;;;;;;;;5063742;27;87012;-51
2022/07/11 05:56:42;;;;;;;3.27;0.40;;;;;;;;;;5063878;27;86837;-50
2022/07/11 05:59:10;;;;;;;3.07;0.40;;;;;;;;;;5063648;27;89403;-52
2022/07/11 06:01:39;;;;;;;0.40;0.40;;;;;;;;;;5064412;27;87917;-50
2022/07/11 06:04:07;;;;;;;0.50;0.50;;;;;;;;;;5064223;27;87032;-51
2022/07/11 06:06:35;;;;;;;1.07;0.60;;;;;;;;;;5065158;27;86991;-51
2022/07/11 06:09:03;;;;;;;1.87;0.50;;;;;;;;;;5064023;27;88094;-52
2022/07/11 06:11:32;;;;;;;0.57;0.40;;;;;;;;;;5063986;27;88936;-51
2022/07/11 06:14:02;;;;;;;0.40;0.40;;;;;;;;;;5063393;27;87150;-51
2022/07/11 06:16:30;;;;;;;0.60;0.50;;;;;;;;;;5064621;27;87093;-52
2022/07/11 06:18:59;;;;;;;1.57;0.63;;;;;;;;;;5064436;27;89117;-52
2022/07/11 06:21:28;;;;;;;1.20;0.87;;;;;;;;;;5063925;27;89030;-52
2022/07/11 06:23:56;;;;;;;1.60;0.60;;;;;;;;;;5063693;27;87086;-53
2022/07/11 06:26:24;;;;;;;1.43;0.50;;;;;;;;;;5063923;27;86168;-52
2022/07/11 06:28:53;;;;;;;0.40;0.40;;;;;;;;;;5063386;27;89108;-50
2022/07/11 06:31:22;;;;;;;0.60;0.60;;;;;;;;;;5063619;27;89038;-51
2022/07/11 06:33:54;;;;;;;2.53;0.70;;;;;;;;;;5063421;27;87961;-52
2022/07/11 06:36:24;;;;;;;3.60;0.50;;;;;;;;;;5064386;27;87099;-52
2022/07/11 06:38:52;;;;;;;0.40;0.30;;;;;;;;;;5059262;27;88242;-52
2022/07/11 06:41:20;;;;;;;1.13;0.40;;;;;;;;;;5062891;27;87951;-52
2022/07/11 06:43:49;;;;;;;0.50;0.50;;;;;;;;;;5069823;27;87025;-52
2022/07/11 06:46:17;;;;;;;1.37;0.87;;;;;;;;;;5063869;27;87332;-52
2022/07/11 06:48:47;;;;;;;0.90;0.40;;;;;;;;;;5063928;27;89136;-53
2022/07/11 06:51:15;;;;;;;1.87;0.73;;;;;;;;;;5062660;27;88591;-53
2022/07/11 06:53:44;;;;;;;1.17;1.00;;;;;;;;;;5062276;27;87044;-53
2022/07/11 06:56:13;;;;;;;1.80;0.67;;;;;;;;;;5057846;27;87070;-52
2022/07/11 06:58:41;;;;;;;1.30;1.03;;;;;;;;;;5052964;27;90073;-53
2022/07/11 07:01:10;;;;;;;1.00;0.90;;;;;;;;;;5062821;27;88724;-53
2022/07/11 07:03:38;;;;;;;1.40;1.30;;;;;;;;;;5062604;27;88383;-52
2022/07/11 07:06:08;;;;;;;2.67;1.53;;;;;;;;;;5063468;27;87397;-52
2022/07/11 07:08:37;;;;;;;4.60;1.30;;;;;;;;;;5065339;27;86949;-53
2022/07/11 07:11:05;;;;;;;2.37;1.57;;;;;;;;;;5063342;27;89046;-51
2022/07/11 07:13:36;;;;;;;2.53;1.83;;;;;;;;;;5048545;27;86941;-52
2022/07/11 07:16:06;;;;;;;2.67;2.00;;;;;;;;;;5062643;27;86325;-51
2022/07/11 07:18:35;;;;;;;2.67;2.00;;;;;;;;;;5062673;27;88064;-51
2022/07/11 07:21:03;;;;;;;3.63;1.67;;;;;;;;;;5062873;27;89673;-52
2022/07/11 07:23:33;;;;;;;2.10;1.77;;;;;;;;;;5062300;27;89742;-52
2022/07/11 07:26:01;;;;;;;4.70;2.37;;;;;;;;;;5061141;27;87225;-51
2022/07/11 07:28:30;;;;;;;3.77;2.43;;;;;;;;;;5061155;27;88053;-52
2022/07/11 07:30:59;;;;;;;3.13;2.07;;;;;;;;;;5061411;27;87844;-52
2022/07/11 07:33:28;;;;;;;3.37;2.73;;;;;;;;;;5063125;27;87026;-51
2022/07/11 07:36:12;;;;;;;6.57;2.13;;;;;;;;;;5062756;27;86994;-52
2022/07/11 07:38:43;;;;;;;3.23;1.80;;;;;;;;;;5061832;27;88170;-52
2022/07/11 07:41:12;;;;;;;3.47;1.60;;;;;;;;;;5059212;27;88874;-52
2022/07/11 07:43:41;;;;;;;1.60;1.50;;;;;;;;;;5044615;27;86747;-51
2022/07/11 07:46:10;;;;;;;2.63;1.70;;;;;;;;;;5063629;27;87020;-52
2022/07/11 07:48:39;;;;;;;3.13;1.67;;;;;;;;;;5062401;27;88009;-52
2022/07/11 07:51:07;;;;;;;1.87;1.60;;;;;;;;;;5063054;27;88757;-52
2022/07/11 07:53:36;;;;;;;3.53;1.50;;;;;;;;;;5062618;27;86920;-52
2022/07/11 07:56:06;;;;;;;5.30;2.33;;;;;;;;;;5059288;27;86990;-52
2022/07/11 07:58:35;;;;;;;3.13;1.33;;;;;;;;;;5042354;28;89728;-51
2022/07/11 08:03:49;;;;;;;3.77;2.30;;;;;;;;;;5058513;27;87220;-52
2022/07/11 08:06:17;;;;;;;5.17;2.50;;;;;;;;;;5063291;27;86212;-52
2022/07/11 08:08:45;;;;;;;2.53;1.87;;;;;;;;;;5062598;27;89575;-52
2022/07/11 08:11:16;;;;;;;3.13;1.90;;;;;;;;;;5062935;27;88898;-52
2022/07/11 08:14:00;;;;;;;3.93;1.83;;;;;;;;;;5062267;27;87943;-52
2022/07/11 08:16:29;;;;;;;3.13;2.13;;;;;;;;;;5049515;27;86899;-52
2022/07/11 08:18:59;;;;;;;2.10;1.73;;;;;;;;;;5042253;28;87813;-52
2022/07/11 08:21:28;;;;;;;3.37;2.20;;;;;;;;;;5057064;27;87787;-52
2022/07/11 08:23:56;;;;;;;4.87;2.00;;;;;;;;;;5052190;27;87270;-51
2022/07/11 08:26:26;;;;;;;2.70;1.77;;;;;;;;;;5041903;28;87023;-52
2022/07/11 08:29:00;;;;;;;1.93;1.40;;;;;;;;;;5041068;28;89123;-52
2022/07/11 08:31:28;;;;;;;2.97;1.40;;;;;;;;;;5042564;28;88804;-51
2022/07/11 08:33:58;;;;;;;2.20;1.10;;;;;;;;;;5042321;27;86815;-52
2022/07/11 08:36:29;;;;;;;2.03;1.00;;;;;;;;;;5042133;28;87031;-52
2022/07/11 08:38:58;;;;;;;3.07;1.40;;;;;;;;;;5041290;28;90002;-52
2022/07/11 08:41:28;;;;;;;2.13;1.47;;;;;;;;;;5042080;28;89743;-51
2022/07/11 08:43:56;;;;;;;2.57;1.50;;;;;;;;;;5041902;28;86968;-52
2022/07/11 08:46:25;;;;;;;3.50;1.60;;;;;;;;;;5041287;27;87176;-51
2022/07/11 08:48:54;;;;;;;4.90;1.57;;;;;;;;;;5047618;27;89073;-51
2022/07/11 08:51:23;;;;;;;2.00;0.97;;;;;;;;;;5061069;27;87908;-51
2022/07/11 08:53:51;;;;;;;2.97;1.80;;;;;;;;;;5061936;27;87022;-51
2022/07/11 08:56:21;;;;;;;2.40;1.60;;;;;;;;;;5062150;27;86274;-52
2022/07/11 08:58:51;;;;;;;4.47;2.07;;;;;;;;;;5061492;27;88206;-51
2022/07/11 09:01:27;;;;;;;3.50;2.10;;;;;;;;;;5061715;27;87737;-51
2022/07/11 09:03:55;;;;;;;3.47;1.70;;;;;;;;;;5054890;27;87776;-51
2022/07/11 09:06:24;;;;;;;1.30;1.20;;;;;;;;;;5061552;27;86880;-51
2022/07/11 09:08:52;;;;;;;2.43;1.80;;;;;;;;;;5060847;27;88407;-51
2022/07/11 09:11:20;;;;;;;2.77;1.63;;;;;;;;;;5061149;27;87983;-51
2022/07/11 09:13:48;;;;;;;3.00;1.70;;;;;;;;;;5061576;27;87833;-51
2022/07/11 09:16:19;;;;;;;2.47;1.70;;;;;;;;;;5060675;27;87118;-52
2022/07/11 09:18:47;;;;;;;3.47;1.63;;;;;;;;;;5061057;27;89098;-52
2022/07/11 09:26:48;;;;;;;1.83;1.23;;;;;;;;;;5059775;27;87726;-52
2022/07/11 09:29:17;;;;;;;3.83;1.50;;;;;;;;;;5061006;27;90143;-52
2022/07/11 09:31:47;;;;;;;1.73;1.57;;;;;;;;;;5061407;27;88145;-52
2022/07/11 09:34:16;;;;;;;3.23;1.43;;;;;;;;;;5060897;27;87053;-53
2022/07/11 09:36:44;;;;;;;1.40;1.10;;;;;;;;;;5059478;27;87486;-52
2022/07/11 09:39:13;;;;;;;1.20;1.10;;;;;;;;;;5060196;27;88062;-52
2022/07/11 09:41:42;;;;;;;1.57;1.13;;;;;;;;;;5061549;27;88895;-52
2022/07/11 09:44:14;;;;;;;1.20;1.10;;;;;;;;;;5067863;27;87068;-52
2022/07/11 09:46:43;;;;;;;1.30;1.00;;;;;;;;;;5082196;27;86298;-53
2022/07/11 09:49:12;;;;;;;2.07;1.03;;;;;;;;;;5081999;27;89183;-52
2022/07/11 09:51:41;;;;;;;1.50;0.80;;;;;;;;;;5081881;27;86989;-52
2022/07/11 09:54:09;;;;;;;0.80;0.80;;;;;;;;;;5081661;27;88031;-51
2022/07/11 09:56:40;;;;;;;0.63;0.63;;;;;;;;;;5081400;27;86852;-51
2022/07/11 09:59:25;;;;;;;0.77;0.70;;;;;;;;;;5081085;27;87201;-51
2022/07/11 10:01:53;;;;;;;1.30;0.90;;;;;;;;;;5081690;27;88842;-51
2022/07/11 10:04:24;;;;;;;1.43;1.00;;;;;;;;;;5067616;27;87019;-53
2022/07/11 10:06:53;;;;;;;1.07;0.73;;;;;;;;;;5061295;27;86861;-52
2022/07/11 10:09:22;;;;;;;0.60;0.60;;;;;;;;;;5060890;27;89176;-52
2022/07/11 10:11:50;;;;;;;0.53;0.47;;;;;;;;;;5061553;27;87903;-52
2022/07/11 10:14:18;;;;;;;1.37;0.63;;;;;;;;;;5061556;27;86910;-52
2022/07/11 10:16:50;;;;;;;0.50;0.50;;;;;;;;;;5063402;27;87040;-52
2022/07/11 10:19:20;;;;;;;0.80;0.60;;;;;;;;;;5062793;27;88883;-51
2022/07/11 10:21:54;;;;;;;23.73;1.80;;;;;;;;;;5063691;27;89828;-52
2022/07/11 10:24:25;;;;;;;2.53;0.63;;;;;;;;;;5070551;27;87036;-51
2022/07/11 10:26:56;;;;;;;0.73;0.73;;;;;;;;;;5072449;27;87150;-51
2022/07/11 10:29:25;;;;;;;3.10;0.60;;;;;;;;;;5078919;27;89091;-51
2022/07/11 10:32:05;;;;;;;0.60;0.50;;;;;;;;;;5074137;27;87861;-51
2022/07/11 10:34:43;;;;;;;0.83;0.60;;;;;;;;;;5061853;27;87071;-52
2022/07/11 10:37:12;;;;;;;0.63;0.63;;;;;;;;;;5064114;27;86150;-52
2022/07/11 10:39:46;;;;;;;4.40;0.60;;;;;;;;;;5063454;27;89124;-52
2022/07/11 10:42:20;;;;;;;1.03;0.60;;;;;;;;;;5062423;27;87851;-52
2022/07/11 10:44:49;;;;;;;6.07;0.70;;;;;;;;;;5063259;27;88132;-52
2022/07/11 10:47:36;;;;;;;0.73;0.60;;;;;;;;;;5063382;27;87146;-51
2022/07/11 10:50:06;;;;;;;0.60;0.60;;;;;;;;;;5063438;27;88181;-52
2022/07/11 10:52:36;;;;;;;0.97;0.70;;;;;;;;;;5062582;27;87962;-51
2022/07/11 10:55:06;;;;;;;0.60;0.60;;;;;;;;;;5063043;27;86731;-51
2022/07/11 10:57:36;;;;;;;5.23;1.27;;;;;;;;;;5063077;27;87098;-52
2022/07/11 11:00:06;;;;;;;5.60;1.67;;;;;;;;;;5063004;27;88289;-52
2022/07/11 11:02:54;;;;;;;2.13;0.77;;;;;;;;;;5063703;27;86567;-52
2022/07/11 11:05:37;;;;;;;0.67;0.63;;;;;;;;;;5063333;27;87068;-51
2022/07/11 11:08:08;;;;;;;1.37;0.80;;;;;;;;;;5062662;27;87271;-52
2022/07/11 11:10:52;;;;;;;0.70;0.67;;;;;;;;;;5047054;27;89948;-52
2022/07/11 11:13:21;;;;;;;1.60;0.80;;;;;;;;;;5055033;27;89844;-51
2022/07/11 11:15:50;;;;;;;0.90;0.80;;;;;;;;;;5062465;27;86820;-52
2022/07/11 11:18:36;;;;;;;1.27;0.80;;;;;;;;;;5062462;27;87042;-53
2022/07/11 11:21:15;;;;;;;1.13;0.83;;;;;;;;;;5060647;27;89189;-52
2022/07/11 11:23:45;;;;;;;1.00;0.63;;;;;;;;;;5061620;27;88820;-51
2022/07/11 11:26:18;;;;;;;1.30;1.20;;;;;;;;;;5061846;27;88320;-51
2022/07/11 11:28:56;;;;;;;1.23;0.90;;;;;;;;;;5062491;27;86385;-52
2022/07/11 11:31:24;;;;;;;2.27;1.07;;;;;;;;;;5062941;27;88181;-51
2022/07/11 11:33:53;;;;;;;4.40;1.27;;;;;;;;;;5063155;27;87647;-51
2022/07/11 11:36:21;;;;;;;2.07;1.20;;;;;;;;;;5061297;27;88006;-51
2022/07/11 11:38:51;;;;;;;2.63;1.40;;;;;;;;;;5063099;27;87010;-50
2022/07/11 11:41:23;;;;;;;1.73;1.20;;;;;;;;;;5062795;27;88220;-51
2022/07/11 11:43:51;;;;;;;2.00;1.40;;;;;;;;;;5063337;27;88808;-52
2022/07/11 11:46:19;;;;;;;1.27;0.97;;;;;;;;;;5063356;27;86947;-51
2022/07/11 11:48:48;;;;;;;2.80;1.53;;;;;;;;;;5061948;27;87039;-52
2022/07/11 11:51:17;;;;;;;2.27;1.70;;;;;;;;;;5063012;27;88179;-51
2022/07/11 11:53:46;;;;;;;1.93;1.33;;;;;;;;;;5063311;27;87820;-51
2022/07/11 11:56:17;;;;;;;2.73;1.00;;;;;;;;;;5062875;27;87587;-51
2022/07/11 11:58:45;;;;;;;0.97;0.93;;;;;;;;;;5062634;27;87021;-51
2022/07/11 12:01:14;;;;;;;1.63;1.20;;;;;;;;;;5062398;27;89362;-52
2022/07/11 12:03:48;;;;;;;4.07;1.20;;;;;;;;;;5062908;27;88883;-52
2022/07/11 12:06:17;;;;;;;2.80;1.10;;;;;;;;;;5062951;27;87087;-52
2022/07/11 12:08:45;;;;;;;1.73;1.00;;;;;;;;;;5063215;27;87064;-51
2022/07/11 12:11:14;;;;;;;3.00;1.33;;;;;;;;;;5062823;27;86921;-52
2022/07/11 12:13:44;;;;;;;1.33;1.10;;;;;;;;;;5062384;27;88883;-52
2022/07/11 12:19:01;;;;;;;1.33;0.90;;;;;;;;;;5062934;27;87240;-52
2022/07/11 12:21:30;;;;;;;1.60;1.03;;;;;;;;;;5062710;27;88212;-52
2022/07/11 12:23:59;;;;;;;1.80;1.07;;;;;;;;;;5062518;27;88839;-52
2022/07/11 12:26:28;;;;;;;1.20;0.70;;;;;;;;;;5061676;27;88018;-52
2022/07/11 12:29:08;;;;;;;1.30;0.90;;;;;;;;;;5062214;27;87134;-52
2022/07/11 12:31:44;;;;;;;1.07;0.80;;;;;;;;;;5062120;27;89142;-52
2022/07/11 12:34:13;;;;;;;1.20;1.10;;;;;;;;;;5062242;27;87611;-52
2022/07/11 12:36:41;;;;;;;1.30;0.90;;;;;;;;;;5062495;27;87024;-52
2022/07/11 12:39:09;;;;;;;0.90;0.90;;;;;;;;;;5062136;27;86972;-51
2022/07/11 12:41:38;;;;;;;1.17;1.07;;;;;;;;;;5062289;27;89096;-53
2022/07/11 12:46:54;;;;;;;1.03;0.77;;;;;;;;;;5062316;27;87064;-53
2022/07/11 12:49:22;;;;;;;3.00;0.90;;;;;;;;;;5062009;27;87010;-52
2022/07/11 12:51:51;;;;;;;0.80;0.80;;;;;;;;;;5060320;27;89074;-52
2022/07/11 12:54:19;;;;;;;1.70;1.00;;;;;;;;;;5061437;27;88700;-52
2022/07/11 12:56:54;;;;;;;0.70;0.60;;;;;;;;;;5061341;27;86774;-52
2022/07/11 12:59:24;;;;;;;0.83;0.53;;;;;;;;;;5061320;27;87002;-52
2022/07/11 13:01:56;;;;;;;0.93;0.77;;;;;;;;;;5060926;27;89088;-52
2022/07/11 13:04:34;;;;;;;0.70;0.70;;;;;;;;;;5061445;27;88808;-52
2022/07/11 13:10:07;;;;;;;1.37;0.97;;;;;;;;;;5062584;27;86328;-52
2022/07/11 13:12:36;;;;;;;1.13;1.03;;;;;;;;;;5061635;27;88158;-52
2022/07/11 13:15:12;;;;;;;2.27;1.10;;;;;;;;;;5061254;27;86932;-52
2022/07/11 13:17:41;;;;;;;3.03;1.27;;;;;;;;;;5061361;27;87976;-52
2022/07/11 13:20:12;;;;;;;2.17;1.30;;;;;;;;;;5061335;27;87061;-53
2022/07/11 13:22:41;;;;;;;1.53;1.07;;;;;;;;;;5061695;27;87846;-52
2022/07/11 13:25:10;;;;;;;2.73;1.50;;;;;;;;;;5060925;27;87963;-52
2022/07/11 13:27:38;;;;;;;2.43;1.20;;;;;;;;;;5061790;27;87118;-52
2022/07/11 13:30:12;;;;;;;2.07;0.87;;;;;;;;;;5061555;27;87042;-53
2022/07/11 13:32:40;;;;;;;1.13;1.03;;;;;;;;;;5061379;27;88110;-52
2022/07/11 13:35:09;;;;;;;1.67;1.10;;;;;;;;;;5061293;27;87849;-52
2022/07/11 13:37:44;;;;;;;2.57;1.10;;;;;;;;;;5061750;27;86965;-53
2022/07/11 13:40:13;;;;;;;1.30;0.97;;;;;;;;;;5061501;27;86997;-52
2022/07/11 13:42:41;;;;;;;1.20;0.77;;;;;;;;;;5060445;27;90220;-53
2022/07/11 13:45:11;;;;;;;2.37;1.00;;;;;;;;;;5060672;27;89794;-52
2022/07/11 13:47:40;;;;;;;2.67;1.10;;;;;;;;;;5061801;27;87022;-52
2022/07/11 13:50:08;;;;;;;1.53;1.37;;;;;;;;;;5061464;27;86935;-52
2022/07/11 13:52:36;;;;;;;1.27;1.00;;;;;;;;;;5063904;27;89080;-52
2022/07/11 13:55:05;;;;;;;1.07;0.87;;;;;;;;;;5063903;27;89089;-52
2022/07/11 13:57:33;;;;;;;1.87;1.30;;;;;;;;;;5065423;27;86979;-52
2022/07/11 14:00:03;;;;;;;1.90;0.90;;;;;;;;;;5064743;27;86287;-52
2022/07/11 14:02:33;;;;;;;1.07;0.87;;;;;;;;;;5064064;27;89142;-52
2022/07/11 14:05:01;;;;;;;1.17;0.97;;;;;;;;;;5064203;27;88769;-52
2022/07/11 14:07:29;;;;;;;1.73;1.10;;;;;;;;;;5064874;27;87958;-53
2022/07/11 14:09:58;;;;;;;1.37;0.90;;;;;;;;;;5064512;27;86915;-52
2022/07/11 14:12:28;;;;;;;3.33;1.33;;;;;;;;;;5064348;27;88202;-52
2022/07/11 14:14:56;;;;;;;2.67;1.03;;;;;;;;;;5064295;27;88868;-51
2022/07/11 14:17:26;;;;;;;1.87;1.10;;;;;;;;;;5064186;27;86877;-52
2022/07/11 14:19:56;;;;;;;0.80;0.80;;;;;;;;;;5064246;27;86961;-52
2022/07/11 14:22:25;;;;;;;1.63;1.10;;;;;;;;;;5064821;27;88262;-52
2022/07/11 14:24:53;;;;;;;1.27;0.93;;;;;;;;;;5065156;27;87866;-52
2022/07/11 14:27:21;;;;;;;1.40;1.30;;;;;;;;;;5064339;27;87165;-52
2022/07/11 14:29:50;;;;;;;1.17;1.00;;;;;;;;;;5064552;27;86886;-52
2022/07/11 14:32:20;;;;;;;1.57;1.33;;;;;;;;;;5064010;27;90293;-52
2022/07/11 14:34:48;;;;;;;2.07;1.33;;;;;;;;;;5064290;27;89795;-52
2022/07/11 14:37:18;;;;;;;1.83;1.13;;;;;;;;;;5064382;27;86994;-52
2022/07/11 14:39:46;;;;;;;5.23;1.30;;;;;;;;;;5064175;27;87128;-52
2022/07/11 14:42:15;;;;;;;1.40;1.03;;;;;;;;;;5064224;27;89339;-52
2022/07/11 14:45:03;;;;;;;3.60;1.33;;;;;;;;;;5064115;27;87382;-53
2022/07/11 14:47:32;;;;;;;2.93;1.40;;;;;;;;;;5064458;27;86955;-53
2022/07/11 14:50:00;;;;;;;1.00;0.90;;;;;;;;;;5064767;27;86307;-52
2022/07/11 14:52:30;;;;;;;2.33;1.40;;;;;;;;;;5063866;27;89148;-50
2022/07/11 14:54:58;;;;;;;1.53;1.23;;;;;;;;;;5063190;27;87822;-52
2022/07/11 14:57:27;;;;;;;1.33;1.10;;;;;;;;;;5063546;27;88173;-53
2022/07/11 14:59:55;;;;;;;2.00;1.43;;;;;;;;;;5063114;27;86974;-52
2022/07/11 15:05:06;;;;;;;2.27;1.53;;;;;;;;;;5061986;27;88841;-52
2022/07/11 15:13:16;;;;;;;1.97;1.20;;;;;;;;;;5061762;27;89163;-53
2022/07/11 15:15:45;;;;;;;1.90;1.20;;;;;;;;;;5063746;27;87903;-52
2022/07/11 15:18:13;;;;;;;2.30;1.17;;;;;;;;;;5063827;27;87177;-53
2022/07/11 15:20:42;;;;;;;2.57;1.40;;;;;;;;;;5063539;27;87009;-52
2022/07/11 15:23:12;;;;;;;1.70;1.60;;;;;;;;;;5062225;27;89035;-52
2022/07/11 15:25:40;;;;;;;1.20;1.10;;;;;;;;;;5063038;27;88892;-53
2022/07/11 15:28:08;;;;;;;1.90;1.20;;;;;;;;;;5063624;27;86990;-53